AEN3LC EDDH-EDDS
Flight info
| Callsign | AEN3LC |
|---|---|
| Flight time | 0h 56m |
| Altitude | 35000 |
| Route | IDEKO8C IDEKO N850 NIE DCT BERXO DCT SILWE DCT OSBIT P605 TOSTU T726 LBU |
| Aircraft | A320/M-SDE3FGHIRWY/LB1 |
Departure
| Time | 2026-05-06 10:27 |
|---|---|
| Airport | Hamburg Helmut Schmidt Airport (EDDH) |
Arrival
| Time | 2026-05-06 11:23 |
|---|---|
| Airport | Stuttgart Airport (EDDS) |
| Time | Latitude | Longitude | Altitude | Speed | Heading |
|---|---|---|---|---|---|
| 2026-05-06 09:45 | 53.63206 | 10.00375 | 49 ft | 0 kts | 86° |
| 2026-05-06 09:46 | 53.63206 | 10.00374 | 49 ft | 0 kts | 86° |
| 2026-05-06 10:03 | 53.63206 | 10.00373 | 48 ft | 0 kts | 86° |
| 2026-05-06 10:17 | 53.63206 | 10.00365 | 48 ft | 3 kts | 86° |
| 2026-05-06 10:17 | 53.63204 | 10.00320 | 48 ft | 4 kts | 86° |
| 2026-05-06 10:18 | 53.63203 | 10.00275 | 48 ft | 4 kts | 86° |
| 2026-05-06 10:18 | 53.63202 | 10.00239 | 48 ft | 4 kts | 95° |
| 2026-05-06 10:18 | 53.63208 | 10.00197 | 48 ft | 4 kts | 129° |
| 2026-05-06 10:18 | 53.63223 | 10.00178 | 45 ft | 0 kts | 176° |
| 2026-05-06 10:19 | 53.63224 | 10.00178 | 45 ft | 0 kts | 176° |
| 2026-05-06 10:21 | 53.63219 | 10.00179 | 45 ft | 4 kts | 176° |
| 2026-05-06 10:21 | 53.63171 | 10.00184 | 48 ft | 7 kts | 176° |
| 2026-05-06 10:21 | 53.63129 | 10.00189 | 48 ft | 6 kts | 176° |
| 2026-05-06 10:21 | 53.63081 | 10.00189 | 48 ft | 7 kts | 191° |
| 2026-05-06 10:22 | 53.63025 | 10.00141 | 45 ft | 9 kts | 213° |
| 2026-05-06 10:22 | 53.62976 | 10.00087 | 48 ft | 8 kts | 213° |
| 2026-05-06 10:22 | 53.62903 | 10.00036 | 48 ft | 12 kts | 194° |
| 2026-05-06 10:22 | 53.62817 | 9.99977 | 45 ft | 18 kts | 211° |
| 2026-05-06 10:23 | 53.62702 | 9.99871 | 44 ft | 19 kts | 208° |
| 2026-05-06 10:23 | 53.62632 | 9.99705 | 47 ft | 17 kts | 259° |
| 2026-05-06 10:23 | 53.62609 | 9.99509 | 47 ft | 17 kts | 260° |
| 2026-05-06 10:23 | 53.62583 | 9.99274 | 47 ft | 24 kts | 259° |
| 2026-05-06 10:24 | 53.62550 | 9.98988 | 44 ft | 26 kts | 259° |
| 2026-05-06 10:24 | 53.62514 | 9.98676 | 47 ft | 28 kts | 259° |
| 2026-05-06 10:24 | 53.62477 | 9.98335 | 44 ft | 30 kts | 259° |
| 2026-05-06 10:24 | 53.62399 | 9.98027 | 47 ft | 30 kts | 231° |
| 2026-05-06 10:25 | 53.62263 | 9.97753 | 47 ft | 32 kts | 229° |
| 2026-05-06 10:25 | 53.62180 | 9.97556 | 47 ft | 12 kts | 256° |
| 2026-05-06 10:25 | 53.62195 | 9.97429 | 42 ft | 14 kts | 304° |
| 2026-05-06 10:25 | 53.62307 | 9.97373 | 40 ft | 20 kts | 20° |
| 2026-05-06 10:26 | 53.62350 | 9.97431 | 40 ft | 1 kts | 49° |
| 2026-05-06 10:26 | 53.62448 | 9.97625 | 40 ft | 57 kts | 51° |
| 2026-05-06 10:26 | 53.62852 | 9.98441 | 44 ft | 121 kts | 50° |
| 2026-05-06 10:26 | 53.63490 | 9.99721 | 310 ft | 148 kts | 50° |
| 2026-05-06 10:27 | 53.64135 | 10.01049 | 1082 ft | 146 kts | 50° |
| 2026-05-06 10:27 | 53.64776 | 10.02361 | 1849 ft | 144 kts | 50° |
| 2026-05-06 10:27 | 53.65409 | 10.03657 | 2511 ft | 143 kts | 52° |
| 2026-05-06 10:27 | 53.66040 | 10.04947 | 3128 ft | 142 kts | 52° |
| 2026-05-06 10:28 | 53.66699 | 10.06294 | 3512 ft | 159 kts | 52° |
| 2026-05-06 10:28 | 53.67439 | 10.07805 | 3797 ft | 180 kts | 51° |
| 2026-05-06 10:28 | 53.68129 | 10.09710 | 4037 ft | 204 kts | 76° |
| 2026-05-06 10:28 | 53.68011 | 10.12200 | 4429 ft | 231 kts | 115° |
| 2026-05-06 10:29 | 53.66834 | 10.14222 | 4951 ft | 259 kts | 153° |
| 2026-05-06 10:29 | 53.65023 | 10.14656 | 5793 ft | 273 kts | 190° |
| 2026-05-06 10:29 | 53.63260 | 10.13439 | 6758 ft | 278 kts | 211° |
| 2026-05-06 10:29 | 53.61679 | 10.11542 | 7705 ft | 279 kts | 218° |
| 2026-05-06 10:30 | 53.60168 | 10.09481 | 8652 ft | 281 kts | 219° |
| 2026-05-06 10:30 | 53.58588 | 10.07531 | 9492 ft | 285 kts | 208° |
| 2026-05-06 10:30 | 53.56707 | 10.06538 | 9778 ft | 286 kts | 186° |
| 2026-05-06 10:30 | 53.54691 | 10.06328 | 9857 ft | 301 kts | 184° |
| 2026-05-06 10:31 | 53.52507 | 10.06149 | 9864 ft | 320 kts | 183° |
| 2026-05-06 10:31 | 53.50285 | 10.05978 | 9863 ft | 325 kts | 183° |
| 2026-05-06 10:31 | 53.48016 | 10.05800 | 9885 ft | 328 kts | 183° |
| 2026-05-06 10:31 | 53.45744 | 10.05617 | 9882 ft | 326 kts | 183° |
| 2026-05-06 10:32 | 53.43540 | 10.05877 | 9878 ft | 311 kts | 165° |
| 2026-05-06 10:32 | 53.41678 | 10.07501 | 9876 ft | 298 kts | 140° |
| 2026-05-06 10:32 | 53.40367 | 10.10117 | 9874 ft | 292 kts | 126° |
| 2026-05-06 10:32 | 53.39228 | 10.12931 | 9872 ft | 291 kts | 124° |
| 2026-05-06 10:33 | 53.38098 | 10.15771 | 9872 ft | 302 kts | 124° |
| 2026-05-06 10:33 | 53.36728 | 10.18638 | 9862 ft | 325 kts | 140° |
| 2026-05-06 10:33 | 53.34757 | 10.20512 | 9861 ft | 329 kts | 164° |
| 2026-05-06 10:33 | 53.32465 | 10.20837 | 10333 ft | 335 kts | 185° |
| 2026-05-06 10:34 | 53.30170 | 10.20500 | 11228 ft | 335 kts | 186° |
| 2026-05-06 10:34 | 53.27837 | 10.20171 | 12035 ft | 338 kts | 186° |
| 2026-05-06 10:34 | 53.25480 | 10.19848 | 12825 ft | 341 kts | 186° |
| 2026-05-06 10:34 | 53.23099 | 10.19526 | 13588 ft | 345 kts | 186° |
| 2026-05-06 10:35 | 53.21514 | 10.19311 | 14029 ft | 347 kts | 185° |
| 2026-05-06 10:35 | 53.19094 | 10.18982 | 14690 ft | 350 kts | 186° |
| 2026-05-06 10:35 | 53.16652 | 10.18649 | 15385 ft | 354 kts | 186° |
| 2026-05-06 10:35 | 53.14182 | 10.18308 | 16057 ft | 357 kts | 186° |
| 2026-05-06 10:36 | 53.11694 | 10.17961 | 16740 ft | 361 kts | 186° |
| 2026-05-06 10:36 | 53.09182 | 10.17608 | 17400 ft | 364 kts | 186° |
| 2026-05-06 10:36 | 53.06645 | 10.17252 | 18030 ft | 368 kts | 186° |
| 2026-05-06 10:36 | 53.04085 | 10.16895 | 18583 ft | 371 kts | 186° |
| 2026-05-06 10:37 | 53.01498 | 10.16533 | 19137 ft | 374 kts | 186° |
| 2026-05-06 10:37 | 52.98889 | 10.16174 | 19711 ft | 377 kts | 186° |
| 2026-05-06 10:37 | 52.96259 | 10.15813 | 20275 ft | 380 kts | 186° |
| 2026-05-06 10:37 | 52.93615 | 10.15447 | 20830 ft | 383 kts | 187° |
| 2026-05-06 10:38 | 52.90948 | 10.15076 | 21408 ft | 386 kts | 187° |
| 2026-05-06 10:38 | 52.88261 | 10.14706 | 21968 ft | 389 kts | 187° |
| 2026-05-06 10:38 | 52.85554 | 10.14337 | 22512 ft | 391 kts | 187° |
| 2026-05-06 10:38 | 52.82866 | 10.13971 | 23019 ft | 394 kts | 187° |
| 2026-05-06 10:39 | 52.80125 | 10.13600 | 23507 ft | 396 kts | 187° |
| 2026-05-06 10:39 | 52.77365 | 10.13226 | 23936 ft | 398 kts | 187° |
| 2026-05-06 10:39 | 52.74597 | 10.12848 | 24378 ft | 400 kts | 187° |
| 2026-05-06 10:39 | 52.71815 | 10.12465 | 24812 ft | 402 kts | 187° |
| 2026-05-06 10:40 | 52.69025 | 10.12078 | 25236 ft | 403 kts | 187° |
| 2026-05-06 10:40 | 52.66224 | 10.11689 | 25648 ft | 405 kts | 187° |
| 2026-05-06 10:40 | 52.63407 | 10.11302 | 26062 ft | 406 kts | 187° |
| 2026-05-06 10:40 | 52.60587 | 10.10917 | 26468 ft | 408 kts | 187° |
| 2026-05-06 10:41 | 52.57747 | 10.10534 | 26869 ft | 410 kts | 187° |
| 2026-05-06 10:41 | 52.54900 | 10.10148 | 27261 ft | 412 kts | 187° |
| 2026-05-06 10:41 | 52.52072 | 10.09768 | 27645 ft | 414 kts | 187° |
| 2026-05-06 10:41 | 52.49196 | 10.09383 | 28029 ft | 415 kts | 187° |
| 2026-05-06 10:42 | 52.46306 | 10.08992 | 28415 ft | 417 kts | 187° |
| 2026-05-06 10:42 | 52.43403 | 10.08598 | 28775 ft | 419 kts | 187° |
| 2026-05-06 10:42 | 52.40489 | 10.08203 | 29139 ft | 421 kts | 187° |
| 2026-05-06 10:42 | 52.37568 | 10.07806 | 29497 ft | 423 kts | 187° |
| 2026-05-06 10:43 | 52.34624 | 10.07408 | 29870 ft | 425 kts | 187° |
| 2026-05-06 10:43 | 52.31667 | 10.07012 | 30179 ft | 427 kts | 187° |
| 2026-05-06 10:43 | 52.28699 | 10.06613 | 30463 ft | 428 kts | 187° |
| 2026-05-06 10:44 | 52.22739 | 10.05808 | 31009 ft | 431 kts | 187° |
| 2026-05-06 10:44 | 52.19752 | 10.05408 | 31338 ft | 431 kts | 188° |
| 2026-05-06 10:44 | 52.16767 | 10.05014 | 31749 ft | 429 kts | 188° |
| 2026-05-06 10:44 | 52.13796 | 10.04624 | 32148 ft | 428 kts | 188° |
| 2026-05-06 10:45 | 52.10840 | 10.04235 | 32553 ft | 426 kts | 188° |
| 2026-05-06 10:45 | 52.07924 | 10.03850 | 32949 ft | 425 kts | 188° |
| 2026-05-06 10:45 | 52.04984 | 10.03463 | 33359 ft | 423 kts | 188° |
| 2026-05-06 10:45 | 52.02050 | 10.03076 | 33751 ft | 422 kts | 189° |
| 2026-05-06 10:46 | 51.99129 | 10.02687 | 34081 ft | 421 kts | 189° |
| 2026-05-06 10:46 | 51.96215 | 10.02293 | 34384 ft | 420 kts | 189° |
| 2026-05-06 10:46 | 51.93296 | 10.01896 | 34673 ft | 420 kts | 189° |
| 2026-05-06 10:46 | 51.90375 | 10.01502 | 34777 ft | 419 kts | 188° |
| 2026-05-06 10:47 | 51.87478 | 10.01121 | 34796 ft | 417 kts | 188° |
| 2026-05-06 10:47 | 51.81715 | 10.00383 | 34791 ft | 415 kts | 188° |
| 2026-05-06 10:48 | 51.75960 | 9.99651 | 34786 ft | 414 kts | 188° |
| 2026-05-06 10:48 | 51.70256 | 9.98898 | 34785 ft | 413 kts | 189° |
| 2026-05-06 10:49 | 51.64527 | 9.98138 | 34780 ft | 413 kts | 189° |
| 2026-05-06 10:49 | 51.58791 | 9.97385 | 34771 ft | 413 kts | 188° |
| 2026-05-06 10:50 | 51.53055 | 9.96645 | 34769 ft | 413 kts | 188° |
| 2026-05-06 10:50 | 51.47319 | 9.95911 | 34762 ft | 413 kts | 188° |
| 2026-05-06 10:51 | 51.41590 | 9.95174 | 34758 ft | 413 kts | 188° |
| 2026-05-06 10:51 | 51.35895 | 9.94433 | 34759 ft | 413 kts | 189° |
| 2026-05-06 10:52 | 51.30173 | 9.93697 | 34763 ft | 413 kts | 189° |
| 2026-05-06 10:52 | 51.24446 | 9.92963 | 34762 ft | 412 kts | 189° |
| 2026-05-06 10:53 | 51.18733 | 9.92236 | 34765 ft | 412 kts | 189° |
| 2026-05-06 10:53 | 51.13017 | 9.91500 | 34760 ft | 411 kts | 189° |
| 2026-05-06 10:54 | 51.07354 | 9.90774 | 34763 ft | 411 kts | 188° |
| 2026-05-06 10:54 | 51.01653 | 9.90059 | 34760 ft | 410 kts | 188° |
| 2026-05-06 10:55 | 50.95955 | 9.89335 | 34760 ft | 409 kts | 188° |
| 2026-05-06 10:55 | 50.90315 | 9.88619 | 34761 ft | 409 kts | 188° |
| 2026-05-06 10:56 | 50.84642 | 9.87913 | 34760 ft | 408 kts | 188° |
| 2026-05-06 10:56 | 50.78976 | 9.87209 | 34762 ft | 408 kts | 188° |
| 2026-05-06 10:57 | 50.73310 | 9.86497 | 34763 ft | 408 kts | 188° |
| 2026-05-06 10:57 | 50.67651 | 9.85791 | 34757 ft | 408 kts | 188° |
| 2026-05-06 10:58 | 50.61997 | 9.85093 | 34756 ft | 407 kts | 188° |
| 2026-05-06 10:58 | 50.56389 | 9.84392 | 34760 ft | 406 kts | 188° |
| 2026-05-06 10:59 | 50.50752 | 9.83683 | 34764 ft | 406 kts | 188° |
| 2026-05-06 10:59 | 50.45126 | 9.82981 | 34763 ft | 405 kts | 188° |
| 2026-05-06 11:00 | 50.39543 | 9.81935 | 34763 ft | 402 kts | 195° |
| 2026-05-06 11:00 | 50.36805 | 9.81045 | 34548 ft | 402 kts | 195° |
| 2026-05-06 11:00 | 50.34069 | 9.80139 | 34306 ft | 401 kts | 195° |
| 2026-05-06 11:00 | 50.31372 | 9.79236 | 34075 ft | 401 kts | 195° |
| 2026-05-06 11:01 | 50.28646 | 9.78321 | 33822 ft | 400 kts | 195° |
| 2026-05-06 11:01 | 50.25925 | 9.77405 | 33547 ft | 400 kts | 195° |
| 2026-05-06 11:01 | 50.23197 | 9.76490 | 32804 ft | 401 kts | 195° |
| 2026-05-06 11:01 | 50.20486 | 9.75593 | 32353 ft | 394 kts | 194° |
| 2026-05-06 11:02 | 50.17814 | 9.74718 | 31826 ft | 390 kts | 194° |
| 2026-05-06 11:02 | 50.15170 | 9.73852 | 31305 ft | 386 kts | 194° |
| 2026-05-06 11:02 | 50.12549 | 9.72991 | 30803 ft | 383 kts | 194° |
| 2026-05-06 11:02 | 50.09954 | 9.72137 | 30302 ft | 379 kts | 194° |
| 2026-05-06 11:03 | 50.07381 | 9.71288 | 29792 ft | 377 kts | 194° |
| 2026-05-06 11:03 | 50.04828 | 9.70448 | 29278 ft | 373 kts | 193° |
| 2026-05-06 11:03 | 50.02340 | 9.69631 | 28786 ft | 368 kts | 193° |
| 2026-05-06 11:03 | 49.99845 | 9.68813 | 28314 ft | 364 kts | 193° |
| 2026-05-06 11:04 | 49.97379 | 9.68004 | 27846 ft | 359 kts | 193° |
| 2026-05-06 11:04 | 49.94945 | 9.67205 | 27404 ft | 355 kts | 193° |
| 2026-05-06 11:04 | 49.92535 | 9.66415 | 26937 ft | 352 kts | 193° |
| 2026-05-06 11:04 | 49.90156 | 9.65636 | 26507 ft | 348 kts | 193° |
| 2026-05-06 11:05 | 49.87792 | 9.64864 | 26073 ft | 346 kts | 193° |
| 2026-05-06 11:05 | 49.85449 | 9.64099 | 25659 ft | 344 kts | 193° |
| 2026-05-06 11:05 | 49.83109 | 9.63336 | 25241 ft | 342 kts | 193° |
| 2026-05-06 11:05 | 49.80779 | 9.62578 | 24836 ft | 341 kts | 193° |
| 2026-05-06 11:06 | 49.78455 | 9.61828 | 24433 ft | 340 kts | 193° |
| 2026-05-06 11:06 | 49.76173 | 9.61090 | 24036 ft | 339 kts | 193° |
| 2026-05-06 11:06 | 49.73868 | 9.60341 | 23625 ft | 338 kts | 193° |
| 2026-05-06 11:06 | 49.71569 | 9.59596 | 23191 ft | 337 kts | 193° |
| 2026-05-06 11:07 | 49.69282 | 9.58860 | 22754 ft | 335 kts | 192° |
| 2026-05-06 11:07 | 49.67002 | 9.58128 | 22344 ft | 333 kts | 192° |
| 2026-05-06 11:07 | 49.64740 | 9.57400 | 21935 ft | 331 kts | 192° |
| 2026-05-06 11:07 | 49.62486 | 9.56672 | 21518 ft | 329 kts | 192° |
| 2026-05-06 11:08 | 49.60285 | 9.55961 | 21110 ft | 327 kts | 192° |
| 2026-05-06 11:08 | 49.58061 | 9.55241 | 20699 ft | 325 kts | 192° |
| 2026-05-06 11:08 | 49.55854 | 9.54526 | 20283 ft | 323 kts | 192° |
| 2026-05-06 11:08 | 49.53660 | 9.53813 | 19864 ft | 322 kts | 192° |
| 2026-05-06 11:09 | 49.51466 | 9.53103 | 19443 ft | 321 kts | 192° |
| 2026-05-06 11:09 | 49.49290 | 9.52403 | 19033 ft | 320 kts | 192° |
| 2026-05-06 11:09 | 49.47109 | 9.51706 | 18613 ft | 319 kts | 192° |
| 2026-05-06 11:09 | 49.44937 | 9.51013 | 18202 ft | 319 kts | 192° |
| 2026-05-06 11:10 | 49.42762 | 9.50318 | 17751 ft | 318 kts | 192° |
| 2026-05-06 11:10 | 49.40604 | 9.49628 | 17329 ft | 316 kts | 192° |
| 2026-05-06 11:10 | 49.38452 | 9.48941 | 16929 ft | 315 kts | 192° |
| 2026-05-06 11:10 | 49.36310 | 9.48258 | 16527 ft | 314 kts | 192° |
| 2026-05-06 11:11 | 49.34208 | 9.47589 | 16134 ft | 313 kts | 192° |
| 2026-05-06 11:11 | 49.32076 | 9.46910 | 15740 ft | 312 kts | 192° |
| 2026-05-06 11:11 | 49.29947 | 9.46233 | 15342 ft | 312 kts | 192° |
| 2026-05-06 11:11 | 49.27824 | 9.45557 | 14949 ft | 311 kts | 192° |
| 2026-05-06 11:12 | 49.25723 | 9.44889 | 14707 ft | 306 kts | 192° |
| 2026-05-06 11:12 | 49.23645 | 9.44229 | 14356 ft | 305 kts | 192° |
| 2026-05-06 11:12 | 49.21567 | 9.43570 | 13966 ft | 305 kts | 192° |
| 2026-05-06 11:12 | 49.19481 | 9.42911 | 13563 ft | 306 kts | 192° |
| 2026-05-06 11:13 | 49.17397 | 9.42250 | 13133 ft | 306 kts | 192° |
| 2026-05-06 11:13 | 49.15311 | 9.41588 | 12725 ft | 306 kts | 192° |
| 2026-05-06 11:13 | 49.13230 | 9.40930 | 12316 ft | 305 kts | 191° |
| 2026-05-06 11:13 | 49.11155 | 9.40272 | 11914 ft | 305 kts | 191° |
| 2026-05-06 11:14 | 49.09107 | 9.39623 | 11504 ft | 304 kts | 191° |
| 2026-05-06 11:14 | 49.07038 | 9.38969 | 11096 ft | 303 kts | 191° |
| 2026-05-06 11:14 | 49.04971 | 9.38318 | 10677 ft | 303 kts | 191° |
| 2026-05-06 11:14 | 49.02905 | 9.37666 | 10272 ft | 303 kts | 191° |
| 2026-05-06 11:15 | 49.00877 | 9.37030 | 10135 ft | 292 kts | 191° |
| 2026-05-06 11:15 | 48.98907 | 9.36416 | 9949 ft | 285 kts | 191° |
| 2026-05-06 11:15 | 48.96972 | 9.35810 | 9803 ft | 285 kts | 191° |
| 2026-05-06 11:15 | 48.95125 | 9.35232 | 9268 ft | 288 kts | 191° |
| 2026-05-06 11:16 | 48.93281 | 9.34747 | 8718 ft | 282 kts | 182° |
| 2026-05-06 11:16 | 48.91345 | 9.35027 | 8040 ft | 279 kts | 165° |
| 2026-05-06 11:16 | 48.89572 | 9.36205 | 7364 ft | 279 kts | 147° |
| 2026-05-06 11:16 | 48.88067 | 9.37985 | 6752 ft | 277 kts | 141° |
| 2026-05-06 11:17 | 48.86576 | 9.39816 | 6150 ft | 275 kts | 142° |
| 2026-05-06 11:17 | 48.85096 | 9.41617 | 5479 ft | 272 kts | 142° |
| 2026-05-06 11:17 | 48.83626 | 9.43401 | 4897 ft | 266 kts | 142° |
| 2026-05-06 11:17 | 48.82247 | 9.45074 | 4832 ft | 240 kts | 142° |
| 2026-05-06 11:18 | 48.80977 | 9.46612 | 4778 ft | 229 kts | 142° |
| 2026-05-06 11:18 | 48.79699 | 9.48013 | 4539 ft | 229 kts | 153° |
| 2026-05-06 11:18 | 48.78215 | 9.48741 | 4455 ft | 219 kts | 172° |
| 2026-05-06 11:18 | 48.76741 | 9.48711 | 4413 ft | 207 kts | 190° |
| 2026-05-06 11:19 | 48.75396 | 9.48036 | 4328 ft | 202 kts | 207° |
| 2026-05-06 11:19 | 48.74291 | 9.46857 | 4185 ft | 193 kts | 223° |
| 2026-05-06 11:19 | 48.73478 | 9.45303 | 3986 ft | 183 kts | 240° |
| 2026-05-06 11:19 | 48.73015 | 9.43610 | 3776 ft | 165 kts | 253° |
| 2026-05-06 11:20 | 48.72715 | 9.42013 | 3534 ft | 152 kts | 254° |
| 2026-05-06 11:20 | 48.72433 | 9.40501 | 3356 ft | 147 kts | 254° |
| 2026-05-06 11:20 | 48.72156 | 9.39024 | 3171 ft | 145 kts | 254° |
| 2026-05-06 11:20 | 48.71878 | 9.37561 | 2980 ft | 144 kts | 254° |
| 2026-05-06 11:21 | 48.71606 | 9.36103 | 2791 ft | 143 kts | 254° |
| 2026-05-06 11:21 | 48.71333 | 9.34654 | 2614 ft | 143 kts | 254° |
| 2026-05-06 11:21 | 48.71066 | 9.33206 | 2420 ft | 143 kts | 254° |
| 2026-05-06 11:21 | 48.70797 | 9.31781 | 2243 ft | 142 kts | 254° |
| 2026-05-06 11:22 | 48.70522 | 9.30343 | 2068 ft | 142 kts | 254° |
| 2026-05-06 11:22 | 48.70248 | 9.28904 | 1856 ft | 142 kts | 255° |
| 2026-05-06 11:22 | 48.69980 | 9.27466 | 1669 ft | 142 kts | 255° |
| 2026-05-06 11:22 | 48.69711 | 9.26037 | 1464 ft | 141 kts | 255° |
| 2026-05-06 11:23 | 48.69443 | 9.24618 | 1321 ft | 140 kts | 255° |
| 2026-05-06 11:23 | 48.69189 | 9.23244 | 1262 ft | 119 kts | 254° |
| 2026-05-06 11:23 | 48.69007 | 9.22295 | 1258 ft | 63 kts | 254° |
| 2026-05-06 11:23 | 48.68940 | 9.21889 | 1259 ft | 32 kts | 266° |
| 2026-05-06 11:24 | 48.68974 | 9.21551 | 1263 ft | 28 kts | 283° |
| 2026-05-06 11:24 | 48.68983 | 9.21490 | 1258 ft | 0 kts | 283° |
| 2026-05-06 11:25 | 48.68988 | 9.21456 | 1261 ft | 8 kts | 283° |
| 2026-05-06 11:25 | 48.69000 | 9.21383 | 1258 ft | 6 kts | 283° |
| 2026-05-06 11:26 | 48.69020 | 9.21270 | 1266 ft | 17 kts | 286° |
| 2026-05-06 11:26 | 48.69037 | 9.21084 | 1262 ft | 19 kts | 259° |
| 2026-05-06 11:26 | 48.69000 | 9.20884 | 1262 ft | 21 kts | 254° |
| 2026-05-06 11:26 | 48.68963 | 9.20665 | 1257 ft | 21 kts | 270° |
| 2026-05-06 11:27 | 48.69048 | 9.20490 | 1260 ft | 22 kts | 309° |
| 2026-05-06 11:27 | 48.69033 | 9.20278 | 1266 ft | 22 kts | 255° |
| 2026-05-06 11:27 | 48.68986 | 9.20049 | 1265 ft | 24 kts | 243° |
| 2026-05-06 11:27 | 48.68895 | 9.19832 | 1268 ft | 25 kts | 241° |
| 2026-05-06 11:28 | 48.68857 | 9.19652 | 1266 ft | 15 kts | 256° |
| 2026-05-06 11:28 | 48.68892 | 9.19596 | 1265 ft | 7 kts | 339° |
| 2026-05-06 11:28 | 48.68921 | 9.19583 | 1257 ft | 0 kts | 345° |